Red Cliff, Wisconsin
Current Conditions -  °F | °C
As of 4:53 PM on Thursday 27 Nov 2014 (Local Time) from KASX Reporting Station
Clear Clear  
Wind Chill:   Ceiling: Unl
Heat Index:   Visibility: 10mi
Dew Point: -2°   Wind: 3mph
Humidity: 83%   Direction: 230°SW
Pressure: 30.39"   Gusts: NA
Location:  46.8614°N, 90.9101°W
Report Text: KASX 272253Z AUTO 23003KT 10SM CLR M17/M19 A3039 RMK AO2 SLP317 T11671189
Loading
Personal Weather Stations






























Interactive Weather Map New forecast layout! Learn more

10-Day Weather Forecast

Advertisements
Track Severe Weather on mobile